Time;durP1;ratioP1;P1;durP2;ratioP2;P2;SDS_P1;SDS_P2;PMS_P1;PMS_P2;Temp;Humidity;BMP_temperature;BMP_pressure;BME280_temperature;BME280_humidity;BME280_pressure;Samples;Min_cycle;Max_cycle;Signal;HPM_P1;HPM_P2
2021/09/13 00:00:11;;;;;;;;;;;19.30;91.70;19.30;99477.00;;;;337168;28;97572;-92
2021/09/13 00:00:23;;;;;;;;;;;19.30;91.70;19.30;99471.00;;;;337943;28;83396;-90
2021/09/13 00:00:35;;;;;;;;;;;19.30;91.70;19.50;99484.00;;;;337227;28;95506;-91
2021/09/13 00:00:47;;;;;;;;;;;19.30;91.50;19.50;99475.00;;;;338005;28;82434;-91
2021/09/13 00:01:00;;;;;;;;;;;19.30;91.40;19.40;99479.00;;;;338455;28;96552;-91
2021/09/13 00:01:12;;;;;;;;;;;19.30;91.60;19.40;99477.00;;;;336691;28;84051;-90
2021/09/13 00:01:29;;;;;;;;;;;19.30;91.70;19.30;99474.00;;;;334549;29;96504;-91
2021/09/13 00:01:42;;;;;;;;;;;19.30;91.90;19.30;99481.00;;;;337104;28;82560;-91
2021/09/13 00:01:54;;;;;;;;;;;19.30;91.80;19.30;99478.00;;;;337693;28;95805;-91
2021/09/13 00:02:06;;;;;;;;;;;19.30;91.80;19.30;99485.00;;;;339406;28;83386;-91
2021/09/13 00:02:18;;;;;;;;;;;19.30;91.70;19.30;99480.00;;;;339832;28;96320;-91
2021/09/13 00:02:31;;;;;;;;;;;19.30;91.90;19.40;99479.00;;;;342077;28;82462;-91
2021/09/13 00:02:43;;;;;;;;;;;19.30;91.90;19.40;99483.00;;;;336150;28;95574;-90
2021/09/13 00:02:55;;;;;;;;;;;19.30;91.60;19.30;99474.00;;;;337830;28;83494;-91
2021/09/13 00:03:07;;;;;;;;;;;19.30;91.80;19.30;99477.00;;;;338522;28;96477;-91
2021/09/13 00:03:19;;;;;;;;;;;19.30;91.90;19.20;99476.00;;;;336593;28;83524;-92
2021/09/13 00:03:32;;;;;;;;;;;19.30;91.90;19.30;99483.00;;;;341072;28;95528;-91
2021/09/13 00:03:44;;;;;;;;;;;19.30;91.90;19.30;99486.00;;;;337919;28;83435;-91
2021/09/13 00:03:56;;;;;;;;;;;19.20;91.80;19.30;99483.00;;;;337276;28;94059;-91
2021/09/13 00:04:08;;;;;;;;;;;19.30;91.80;19.30;99482.00;;;;339333;28;83422;-91
2021/09/13 00:04:20;;;;;;;;;;;19.20;91.70;19.30;99481.00;;;;338298;28;96533;-91
2021/09/13 00:04:31;;;;;;;;;;;19.20;91.90;19.20;99481.00;;;;337809;28;82593;-91
2021/09/13 00:04:43;;;;;;;;;;;19.20;92.00;19.30;99476.00;;;;337591;28;96932;-91
2021/09/13 00:04:55;;;;;;;;;;;19.20;92.00;19.20;99480.00;;;;339293;28;83438;-91
2021/09/13 00:05:08;;;;;;;;;;;19.20;92.10;19.20;99478.00;;;;338533;28;95772;-91
2021/09/13 00:05:22;;;;;;;;;;;19.20;92.00;19.20;99484.00;;;;337679;28;83162;-91
2021/09/13 00:05:33;;;;;;;;;;;19.20;92.10;19.10;99479.00;;;;337285;28;96245;-91
2021/09/13 00:05:46;;;;;;;;;;;19.20;92.00;19.10;99477.00;;;;338337;28;82577;-91
2021/09/13 00:05:58;;;;;;;;;;;19.20;92.00;19.20;99480.00;;;;337331;28;94624;-91
2021/09/13 00:06:10;;;;;;;;;;;19.20;92.10;19.20;99480.00;;;;339327;28;83391;-91
2021/09/13 00:06:22;;;;;;;;;;;19.20;91.90;19.40;99473.00;;;;335755;28;96436;-91
2021/09/13 00:06:33;;;;;;;;;;;19.20;91.70;19.30;99474.00;;;;340655;28;82492;-91
2021/09/13 00:06:45;;;;;;;;;;;19.20;91.90;19.30;99479.00;;;;338353;28;95652;-91
2021/09/13 00:06:57;;;;;;;;;;;19.20;91.90;19.40;99475.00;;;;338010;28;83313;-91
2021/09/13 00:07:09;;;;;;;;;;;19.20;91.70;19.40;99474.00;;;;338399;28;96446;-91
2021/09/13 00:07:21;;;;;;;;;;;19.20;91.60;19.40;99477.00;;;;338020;28;82543;-91
2021/09/13 00:07:33;;;;;;;;;;;19.20;91.60;19.50;99476.00;;;;339861;28;96220;-91
2021/09/13 00:07:44;;;;;;;;;;;19.20;91.80;19.60;99473.00;;;;339301;28;83424;-91
2021/09/13 00:07:56;;;;;;;;;;;19.20;91.80;19.50;99484.00;;;;340451;28;96161;-91
2021/09/13 00:08:08;;;;;;;;;;;19.20;92.00;19.50;99483.00;;;;339417;28;83338;-91
2021/09/13 00:08:20;;;;;;;;;;;19.20;91.80;19.50;99482.00;;;;338427;28;97469;-91
2021/09/13 00:08:32;;;;;;;;;;;19.20;91.70;19.50;99482.00;;;;339280;28;82506;-90
2021/09/13 00:08:43;;;;;;;;;;;19.30;91.80;19.60;99485.00;;;;339798;28;96763;-91
2021/09/13 00:08:55;;;;;;;;;;;19.30;91.80;19.70;99475.00;;;;339387;28;83275;-91
2021/09/13 00:09:07;;;;;;;;;;;19.30;91.90;19.60;99475.00;;;;337222;28;97325;-91
2021/09/13 00:09:19;;;;;;;;;;;19.20;91.80;19.60;99470.00;;;;340706;28;82509;-90
2021/09/13 00:09:31;;;;;;;;;;;19.30;91.70;19.70;99479.00;;;;341326;28;93921;-91
2021/09/13 00:09:42;;;;;;;;;;;19.30;91.80;19.70;99476.00;;;;336675;28;82405;-92
2021/09/13 00:09:54;;;;;;;;;;;19.30;91.80;19.70;99480.00;;;;337078;28;95401;-91
2021/09/13 00:10:06;;;;;;;;;;;19.30;91.80;19.70;99479.00;;;;337980;28;83417;-91
2021/09/13 00:10:18;;;;;;;;;;;19.30;91.80;19.70;99473.00;;;;338475;28;97382;-91
2021/09/13 00:10:30;;;;;;;;;;;19.30;91.80;19.70;99477.00;;;;339276;28;83472;-91
2021/09/13 00:10:43;;;;;;;;;;;19.30;91.80;19.70;99470.00;;;;338546;28;96586;-92
2021/09/13 00:10:55;;;;;;;;;;;19.30;91.70;19.70;99483.00;;;;338741;28;83423;-91
2021/09/13 00:11:07;;;;;;;;;;;19.30;91.60;19.60;99476.00;;;;339832;28;96526;-91
2021/09/13 00:11:18;;;;;;;;;;;19.30;91.60;19.70;99478.00;;;;339351;28;83350;-91
2021/09/13 00:11:30;;;;;;;;;;;19.30;91.70;19.70;99476.00;;;;337278;28;95189;-91
2021/09/13 00:11:42;;;;;;;;;;;19.30;91.80;19.70;99479.00;;;;340437;28;83560;-91
2021/09/13 00:11:54;;;;;;;;;;;19.30;91.70;19.60;99484.00;;;;338628;28;95337;-91
2021/09/13 00:12:06;;;;;;;;;;;19.30;91.60;19.50;99481.00;;;;340467;28;83443;-92
2021/09/13 00:12:18;;;;;;;;;;;19.30;91.70;19.60;99474.00;;;;342625;28;96302;-91
2021/09/13 00:12:30;;;;;;;;;;;19.40;91.60;19.60;99481.00;;;;340695;28;83397;-91
2021/09/13 00:12:42;;;;;;;;;;;19.30;91.60;19.50;99476.00;;;;335922;28;97020;-91
2021/09/13 00:12:54;;;;;;;;;;;19.40;91.70;19.50;99473.00;;;;339314;28;83411;-91
2021/09/13 00:13:06;;;;;;;;;;;19.30;91.80;19.50;99475.00;;;;341215;28;96811;-91
2021/09/13 00:13:19;;;;;;;;;;;19.30;91.80;19.40;99478.00;;;;339353;28;83499;-91
2021/09/13 00:13:30;;;;;;;;;;;19.30;91.70;19.30;99471.00;;;;338652;28;95481;-91
2021/09/13 00:13:42;;;;;;;;;;;19.30;91.80;19.30;99474.00;;;;340630;28;82558;-91
2021/09/13 00:13:54;;;;;;;;;;;19.30;92.00;19.40;99474.00;;;;337238;28;95931;-90
2021/09/13 00:14:06;;;;;;;;;;;19.30;91.90;19.50;99470.00;;;;337985;28;83490;-91
2021/09/13 00:14:18;;;;;;;;;;;19.30;91.90;19.50;99478.00;;;;339822;28;97454;-91
2021/09/13 00:14:30;;;;;;;;;;;19.30;91.80;19.50;99474.00;;;;338007;28;83518;-91
2021/09/13 00:14:42;;;;;;;;;;;19.30;91.90;19.40;99478.00;;;;339861;28;96377;-91
2021/09/13 00:14:54;;;;;;;;;;;19.30;91.90;19.40;99471.00;;;;339316;28;83427;-91
2021/09/13 00:15:06;;;;;;;;;;;19.30;91.90;19.30;99482.00;;;;338472;28;95431;-91
2021/09/13 00:15:18;;;;;;;;;;;19.30;92.10;19.40;99474.00;;;;339222;28;83459;-91
2021/09/13 00:15:30;;;;;;;;;;;19.30;91.90;19.40;99471.00;;;;337268;28;96220;-91
2021/09/13 00:15:42;;;;;;;;;;;19.30;91.80;19.30;99476.00;;;;339377;28;83362;-91
2021/09/13 00:15:53;;;;;;;;;;;19.30;91.90;19.40;99479.00;;;;337219;28;95373;-90
2021/09/13 00:16:06;;;;;;;;;;;19.20;91.90;19.30;99477.00;;;;337994;28;83404;-91
2021/09/13 00:16:17;;;;;;;;;;;19.20;91.90;19.40;99476.00;;;;338450;28;97663;-91
2021/09/13 00:16:29;;;;;;;;;;;19.30;91.90;19.30;99475.00;;;;336744;28;83374;-91
2021/09/13 00:16:41;;;;;;;;;;;19.30;92.10;19.40;99476.00;;;;337114;28;95511;-92
2021/09/13 00:16:53;;;;;;;;;;;19.30;91.90;19.50;99487.00;;;;340500;28;83435;-91
2021/09/13 00:17:05;;;;;;;;;;;19.30;91.90;19.40;99476.00;;;;337124;28;97294;-91
2021/09/13 00:17:17;;;;;;;;;;;19.30;91.80;19.40;99474.00;;;;335329;29;82517;-91
2021/09/13 00:17:29;;;;;;;;;;;19.30;91.90;19.30;99483.00;;;;338644;28;93052;-91
2021/09/13 00:17:41;;;;;;;;;;;19.20;92.00;19.30;99481.00;;;;339354;28;83198;-91
2021/09/13 00:17:52;;;;;;;;;;;19.20;92.10;19.30;99480.00;;;;337289;28;96687;-91
2021/09/13 00:18:04;;;;;;;;;;;19.20;91.90;19.40;99479.00;;;;337973;28;83501;-91
2021/09/13 00:18:16;;;;;;;;;;;19.20;92.00;19.30;99483.00;;;;337236;28;93909;-90
2021/09/13 00:18:28;;;;;;;;;;;19.20;92.20;19.20;99480.00;;;;338007;28;83563;-91
2021/09/13 00:18:40;;;;;;;;;;;19.20;92.30;19.20;99474.00;;;;335982;28;96444;-91
2021/09/13 00:18:52;;;;;;;;;;;19.20;92.40;19.30;99479.00;;;;338032;28;83277;-91
2021/09/13 00:19:03;;;;;;;;;;;19.20;92.20;19.30;99481.00;;;;337135;28;96409;-91
2021/09/13 00:19:16;;;;;;;;;;;19.20;92.20;19.20;99477.00;;;;339451;28;83335;-91
2021/09/13 00:19:28;;;;;;;;;;;19.20;92.20;19.30;99478.00;;;;340028;28;92716;-91
2021/09/13 00:19:39;;;;;;;;;;;19.20;92.20;19.30;99480.00;;;;338003;28;83382;-91
2021/09/13 00:19:51;;;;;;;;;;;19.20;92.10;19.30;99472.00;;;;338413;28;96496;-91
2021/09/13 00:20:04;;;;;;;;;;;19.20;92.00;19.20;99477.00;;;;336679;28;83550;-91
2021/09/13 00:20:16;;;;;;;;;;;19.20;92.10;19.20;99478.00;;;;338348;28;97396;-91
2021/09/13 00:20:28;;;;;;;;;;;19.10;92.20;19.20;99488.00;;;;339313;28;83494;-91
2021/09/13 00:20:39;;;;;;;;;;;19.20;92.20;19.20;99480.00;;;;338570;28;96495;-91
2021/09/13 00:20:51;;;;;;;;;;;19.20;92.30;19.20;99485.00;;;;339104;28;83579;-91
2021/09/13 00:21:03;;;;;;;;;;;19.20;92.30;19.20;99480.00;;;;337959;28;95405;-91
2021/09/13 00:21:15;;;;;;;;;;;19.20;92.20;19.20;99481.00;;;;336698;28;83423;-91
2021/09/13 00:21:26;;;;;;;;;;;19.10;92.10;19.20;99481.00;;;;339940;28;95070;-90
2021/09/13 00:21:38;;;;;;;;;;;19.10;92.20;19.20;99480.00;;;;339366;28;82461;-91
2021/09/13 00:21:50;;;;;;;;;;;19.10;92.30;19.10;99480.00;;;;338369;28;95520;-91
2021/09/13 00:22:02;;;;;;;;;;;19.10;92.20;19.00;99485.00;;;;340464;28;83507;-91
2021/09/13 00:22:13;;;;;;;;;;;19.10;92.30;19.20;99487.00;;;;336942;28;96513;-91
2021/09/13 00:22:25;;;;;;;;;;;19.10;92.30;19.30;99480.00;;;;337949;28;82589;-91
2021/09/13 00:22:37;;;;;;;;;;;19.10;92.20;19.40;99476.00;;;;338221;28;96427;-91
2021/09/13 00:22:49;;;;;;;;;;;19.10;92.40;19.30;99475.00;;;;340768;28;82489;-92
2021/09/13 00:23:01;;;;;;;;;;;19.10;92.10;19.10;99478.00;;;;337223;28;95263;-90
2021/09/13 00:23:13;;;;;;;;;;;19.10;92.20;19.00;99479.00;;;;339341;28;83471;-91
2021/09/13 00:23:24;;;;;;;;;;;19.10;92.30;19.00;99483.00;;;;337334;28;93785;-91
2021/09/13 00:23:36;;;;;;;;;;;19.10;92.40;18.90;99478.00;;;;340473;28;83480;-91
2021/09/13 00:23:48;;;;;;;;;;;19.10;92.50;18.90;99481.00;;;;337214;28;96658;-91
2021/09/13 00:24:00;;;;;;;;;;;19.10;92.70;18.90;99476.00;;;;338033;28;82541;-91
2021/09/13 00:24:12;;;;;;;;;;;19.10;92.70;18.90;99479.00;;;;338581;28;94127;-91
2021/09/13 00:24:24;;;;;;;;;;;19.00;92.60;18.90;99482.00;;;;340686;28;82501;-91
2021/09/13 00:24:35;;;;;;;;;;;19.00;92.60;18.90;99477.00;;;;337270;28;96262;-91
2021/09/13 00:24:47;;;;;;;;;;;19.00;92.60;18.80;99483.00;;;;339318;28;83840;-91
2021/09/13 00:24:59;;;;;;;;;;;19.00;92.60;18.80;99480.00;;;;338471;28;96578;-91
2021/09/13 00:25:11;;;;;;;;;;;19.00;92.60;18.90;99473.00;;;;340610;28;83451;-91
2021/09/13 00:25:23;;;;;;;;;;;19.00;92.70;18.90;99478.00;;;;338620;28;94289;-91
2021/09/13 00:25:34;;;;;;;;;;;19.00;92.70;19.00;99482.00;;;;339383;28;83352;-91
2021/09/13 00:25:47;;;;;;;;;;;19.00;92.80;19.00;99481.00;;;;335755;28;95512;-91
2021/09/13 00:25:59;;;;;;;;;;;19.00;92.80;19.00;99478.00;;;;338074;28;82494;-91
2021/09/13 00:26:10;;;;;;;;;;;19.00;92.70;18.90;99481.00;;;;338565;28;96216;-91
2021/09/13 00:26:22;;;;;;;;;;;19.00;92.90;18.90;99478.00;;;;339356;28;83839;-91
2021/09/13 00:26:34;;;;;;;;;;;18.90;93.00;18.90;99480.00;;;;337237;28;97169;-91
2021/09/13 00:26:46;;;;;;;;;;;18.90;92.80;19.00;99475.00;;;;339329;28;82451;-91
2021/09/13 00:26:58;;;;;;;;;;;18.90;92.80;19.10;99485.00;;;;337178;28;96644;-91
2021/09/13 00:27:10;;;;;;;;;;;18.90;92.70;19.10;99482.00;;;;339261;28;83227;-91
2021/09/13 00:27:21;;;;;;;;;;;18.90;92.90;19.10;99482.00;;;;339666;28;95522;-91
2021/09/13 00:27:33;;;;;;;;;;;18.90;92.70;19.20;99484.00;;;;339390;28;83323;-91
2021/09/13 00:27:45;;;;;;;;;;;18.90;92.60;19.20;99482.00;;;;338404;28;96948;-91
2021/09/13 00:27:58;;;;;;;;;;;18.90;92.60;19.00;99484.00;;;;337866;28;83377;-91
2021/09/13 00:28:09;;;;;;;;;;;18.90;92.70;19.10;99484.00;;;;339789;28;97701;-90
2021/09/13 00:28:21;;;;;;;;;;;18.90;92.60;19.00;99485.00;;;;337895;28;82566;-91
2021/09/13 00:28:33;;;;;;;;;;;18.90;93.00;19.10;99489.00;;;;338522;28;96143;-91
2021/09/13 00:28:45;;;;;;;;;;;18.90;92.70;19.00;99485.00;;;;341418;28;83590;-90
2021/09/13 00:28:59;;;;;;;;;;;18.90;92.60;19.10;99493.00;;;;339826;28;95361;-91
2021/09/13 00:29:10;;;;;;;;;;;18.90;92.70;19.00;99482.00;;;;339330;28;83281;-91
2021/09/13 00:29:22;;;;;;;;;;;18.90;92.70;19.00;99485.00;;;;339919;28;96471;-91
2021/09/13 00:29:34;;;;;;;;;;;18.90;92.80;19.00;99491.00;;;;339320;28;83181;-91
2021/09/13 00:29:46;;;;;;;;;;;18.90;92.70;18.90;99483.00;;;;338499;28;97369;-91
2021/09/13 00:29:58;;;;;;;;;;;18.90;92.60;19.10;99483.00;;;;342047;28;83476;-91
2021/09/13 00:30:10;;;;;;;;;;;18.90;92.60;19.20;99496.00;;;;341203;28;97750;-91
2021/09/13 00:30:22;;;;;;;;;;;18.90;92.50;19.10;99490.00;;;;336608;28;82524;-89
2021/09/13 00:30:33;;;;;;;;;;;18.90;92.50;18.90;99479.00;;;;338614;28;96301;-91
2021/09/13 00:30:45;;;;;;;;;;;18.90;92.60;18.90;99488.00;;;;340701;28;82478;-91
2021/09/13 00:30:57;;;;;;;;;;;18.90;92.70;18.90;99488.00;;;;341186;28;95466;-91
2021/09/13 00:31:09;;;;;;;;;;;18.90;92.80;18.90;99483.00;;;;340683;28;82521;-91
2021/09/13 00:31:20;;;;;;;;;;;18.90;92.90;18.80;99485.00;;;;338511;28;96913;-91
2021/09/13 00:31:32;;;;;;;;;;;18.90;92.90;18.70;99484.00;;;;341833;28;83230;-92
2021/09/13 00:31:44;;;;;;;;;;;18.90;92.80;18.70;99489.00;;;;338478;28;96612;-91
2021/09/13 00:31:56;;;;;;;;;;;18.90;92.90;18.90;99488.00;;;;340698;28;83439;-91
2021/09/13 00:32:08;;;;;;;;;;;18.90;92.90;18.90;99484.00;;;;339813;28;97318;-91
2021/09/13 00:32:20;;;;;;;;;;;18.90;92.90;18.90;99489.00;;;;339279;28;83382;-91
2021/09/13 00:32:32;;;;;;;;;;;18.80;93.00;18.90;99492.00;;;;338569;28;96739;-91
2021/09/13 00:32:44;;;;;;;;;;;18.80;93.10;18.80;99486.00;;;;339292;28;83379;-91
2021/09/13 00:32:55;;;;;;;;;;;18.80;93.00;18.90;99475.00;;;;339974;28;95247;-90
2021/09/13 00:33:07;;;;;;;;;;;18.80;92.90;19.00;99493.00;;;;339237;28;83793;-91
2021/09/13 00:33:19;;;;;;;;;;;18.80;92.80;19.00;99490.00;;;;339899;28;96494;-91
2021/09/13 00:33:31;;;;;;;;;;;18.80;92.70;19.00;99480.00;;;;340423;28;82616;-91
2021/09/13 00:33:43;;;;;;;;;;;18.80;92.60;19.00;99481.00;;;;338502;28;95227;-91
2021/09/13 00:33:54;;;;;;;;;;;18.80;92.60;18.90;99472.00;;;;342033;28;82518;-91
2021/09/13 00:34:06;;;;;;;;;;;18.80;92.70;18.90;99484.00;;;;339842;28;97367;-91
2021/09/13 00:34:18;;;;;;;;;;;18.80;92.90;19.00;99489.00;;;;339299;28;83373;-91
2021/09/13 00:34:30;;;;;;;;;;;18.80;92.80;18.90;99485.00;;;;341263;28;96142;-92
2021/09/13 00:34:42;;;;;;;;;;;18.80;93.00;18.80;99486.00;;;;338335;28;83329;-91
2021/09/13 00:34:54;;;;;;;;;;;18.80;93.30;18.90;99497.00;;;;338440;28;96625;-91
2021/09/13 00:35:06;;;;;;;;;;;18.80;93.00;18.80;99490.00;;;;339322;28;82566;-91
2021/09/13 00:35:18;;;;;;;;;;;18.80;93.10;18.80;99491.00;;;;337312;28;96561;-91
2021/09/13 00:35:30;;;;;;;;;;;18.70;93.10;18.80;99481.00;;;;339327;28;83477;-91
2021/09/13 00:35:41;;;;;;;;;;;18.80;93.20;18.70;99485.00;;;;338532;28;96381;-91
2021/09/13 00:35:53;;;;;;;;;;;18.70;93.30;18.70;99485.00;;;;338038;28;83415;-92
2021/09/13 00:36:06;;;;;;;;;;;18.70;93.20;18.70;99487.00;;;;339706;28;98053;-91
2021/09/13 00:36:18;;;;;;;;;;;18.70;93.10;18.80;99487.00;;;;339285;28;83441;-91
2021/09/13 00:36:29;;;;;;;;;;;18.70;93.00;18.80;99480.00;;;;337163;28;97100;-91
2021/09/13 00:36:41;;;;;;;;;;;18.70;92.90;18.80;99481.00;;;;337792;28;83489;-91
2021/09/13 00:36:53;;;;;;;;;;;18.70;92.90;18.70;99485.00;;;;338559;28;96476;-91
2021/09/13 00:37:05;;;;;;;;;;;18.70;93.10;18.60;99492.00;;;;337899;28;83411;-91
2021/09/13 00:37:17;;;;;;;;;;;18.70;93.20;18.50;99484.00;;;;335936;28;96292;-91
2021/09/13 00:37:29;;;;;;;;;;;18.60;93.50;18.60;99485.00;;;;338014;28;82475;-91
2021/09/13 00:37:41;;;;;;;;;;;18.60;93.40;18.60;99487.00;;;;341552;28;95316;-91
2021/09/13 00:37:52;;;;;;;;;;;18.70;93.40;18.60;99484.00;;;;339368;28;82501;-91
2021/09/13 00:38:04;;;;;;;;;;;18.60;93.30;18.70;99487.00;;;;339599;28;96571;-91
2021/09/13 00:38:16;;;;;;;;;;;18.60;93.20;18.60;99489.00;;;;339289;28;82545;-91
2021/09/13 00:38:28;;;;;;;;;;;18.60;93.20;18.60;99483.00;;;;337179;28;96834;-91
2021/09/13 00:38:40;;;;;;;;;;;18.60;93.30;18.70;99483.00;;;;340548;28;83338;-91
2021/09/13 00:38:54;;;;;;;;;;;18.60;93.20;18.70;99474.00;;;;338526;28;96697;-91
2021/09/13 00:39:06;;;;;;;;;;;18.60;93.00;18.70;99483.00;;;;340544;28;83331;-91
2021/09/13 00:39:17;;;;;;;;;;;18.60;93.10;18.70;99486.00;;;;337200;28;97131;-91
2021/09/13 00:39:29;;;;;;;;;;;18.60;93.10;18.60;99487.00;;;;338015;28;83393;-91
2021/09/13 00:39:41;;;;;;;;;;;18.60;93.20;18.70;99483.00;;;;339687;28;95237;-91
2021/09/13 00:39:53;;;;;;;;;;;18.60;93.20;18.70;99488.00;;;;339294;28;83378;-91
2021/09/13 00:40:05;;;;;;;;;;;18.60;93.30;18.70;99487.00;;;;337036;28;97632;-91
2021/09/13 00:40:17;;;;;;;;;;;18.60;93.20;18.80;99483.00;;;;339070;28;83394;-91
2021/09/13 00:40:29;;;;;;;;;;;18.60;93.10;18.80;99480.00;;;;338484;28;96573;-92
2021/09/13 00:40:40;;;;;;;;;;;18.60;93.10;18.90;99480.00;;;;337665;28;83493;-91
2021/09/13 00:40:52;;;;;;;;;;;18.60;92.90;18.80;99476.00;;;;339604;28;95191;-91
2021/09/13 00:41:04;;;;;;;;;;;18.60;93.30;18.70;99476.00;;;;340378;28;83455;-90
2021/09/13 00:41:16;;;;;;;;;;;18.60;93.30;18.70;99481.00;;;;338432;28;95199;-91
2021/09/13 00:41:28;;;;;;;;;;;18.60;93.30;18.60;99485.00;;;;337938;28;83495;-90
2021/09/13 00:41:40;;;;;;;;;;;18.60;93.30;18.70;99481.00;;;;339726;28;95404;-91
2021/09/13 00:41:51;;;;;;;;;;;18.60;93.40;18.60;99484.00;;;;340601;28;82428;-91
2021/09/13 00:42:04;;;;;;;;;;;18.60;93.40;18.60;99478.00;;;;338462;28;97138;-91
2021/09/13 00:42:16;;;;;;;;;;;18.60;93.40;18.60;99492.00;;;;340633;28;82527;-91
2021/09/13 00:42:28;;;;;;;;;;;18.60;93.30;18.70;99485.00;;;;338477;28;96447;-91
2021/09/13 00:42:40;;;;;;;;;;;18.60;93.20;18.60;99487.00;;;;339284;28;82300;-92
2021/09/13 00:42:52;;;;;;;;;;;18.60;93.30;18.80;99483.00;;;;339850;28;96645;-91
2021/09/13 00:43:03;;;;;;;;;;;18.60;93.20;18.80;99472.00;;;;336600;28;83393;-91
2021/09/13 00:43:16;;;;;;;;;;;18.60;93.20;18.80;99481.00;;;;339854;28;96277;-92
2021/09/13 00:43:28;;;;;;;;;;;18.60;93.30;18.90;99482.00;;;;343378;28;83322;-91
2021/09/13 00:43:39;;;;;;;;;;;18.60;93.20;18.90;99481.00;;;;339739;28;95445;-91
2021/09/13 00:43:51;;;;;;;;;;;18.60;93.10;18.80;99472.00;;;;341649;28;83516;-91
2021/09/13 00:44:03;;;;;;;;;;;18.60;93.20;18.80;99487.00;;;;339752;28;96736;-90
2021/09/13 00:44:15;;;;;;;;;;;18.60;93.20;18.80;99471.00;;;;338982;28;83415;-91
2021/09/13 00:44:27;;;;;;;;;;;18.60;93.20;18.70;99483.00;;;;337239;28;95619;-91
2021/09/13 00:44:39;;;;;;;;;;;18.60;93.30;18.60;99478.00;;;;340596;28;83415;-90
2021/09/13 00:44:52;;;;;;;;;;;18.60;93.30;18.50;99477.00;;;;338570;28;95274;-90
2021/09/13 00:45:05;;;;;;;;;;;18.60;93.30;18.50;99481.00;;;;339250;28;83974;-90
2021/09/13 00:45:16;;;;;;;;;;;18.60;93.30;18.40;99483.00;;;;339872;28;95906;-91
2021/09/13 00:45:28;;;;;;;;;;;18.60;93.40;18.40;99479.00;;;;337973;28;83404;-91
2021/09/13 00:45:40;;;;;;;;;;;18.60;93.40;18.40;99473.00;;;;338342;28;95445;-91
2021/09/13 00:45:52;;;;;;;;;;;18.60;93.50;18.40;99476.00;;;;339244;28;82526;-92
2021/09/13 00:46:04;;;;;;;;;;;18.60;93.40;18.40;99483.00;;;;338427;28;97575;-91
2021/09/13 00:46:16;;;;;;;;;;;18.60;93.40;18.40;99477.00;;;;337917;28;82519;-90
2021/09/13 00:46:28;;;;;;;;;;;18.50;93.40;18.30;99484.00;;;;338521;28;96353;-91
2021/09/13 00:46:40;;;;;;;;;;;18.50;93.50;18.40;99477.00;;;;338891;28;83310;-91
2021/09/13 00:46:53;;;;;;;;;;;18.50;93.60;18.40;99474.00;;;;339374;28;95406;-91
2021/09/13 00:47:05;;;;;;;;;;;18.50;93.50;18.30;99473.00;;;;340379;28;83622;-90
2021/09/13 00:47:17;;;;;;;;;;;18.50;93.60;18.30;99469.00;;;;342417;28;96301;-91
2021/09/13 00:47:29;;;;;;;;;;;18.50;93.70;18.30;99475.00;;;;340619;28;83404;-91
2021/09/13 00:47:40;;;;;;;;;;;18.50;93.70;18.30;99477.00;;;;338498;28;94103;-91
2021/09/13 00:47:52;;;;;;;;;;;18.50;93.60;18.20;99475.00;;;;337883;28;83507;-91
2021/09/13 00:48:05;;;;;;;;;;;18.50;93.50;18.30;99474.00;;;;338411;28;96514;-91
2021/09/13 00:48:16;;;;;;;;;;;18.50;93.70;18.30;99482.00;;;;340560;28;82430;-91
2021/09/13 00:48:28;;;;;;;;;;;18.50;93.60;18.30;99478.00;;;;339831;28;95876;-90
2021/09/13 00:48:40;;;;;;;;;;;18.50;93.60;18.40;99480.00;;;;339313;28;83423;-91
2021/09/13 00:48:52;;;;;;;;;;;18.50;93.70;18.30;99475.00;;;;338718;28;96184;-91
2021/09/13 00:49:03;;;;;;;;;;;18.50;93.80;18.20;99478.00;;;;339402;28;83467;-91
2021/09/13 00:49:15;;;;;;;;;;;18.40;93.70;18.30;99476.00;;;;338608;28;95575;-90
2021/09/13 00:49:27;;;;;;;;;;;18.40;93.60;18.30;99475.00;;;;340971;28;83703;-91
2021/09/13 00:49:39;;;;;;;;;;;18.40;93.70;18.30;99470.00;;;;340923;28;96565;-91
2021/09/13 00:49:51;;;;;;;;;;;18.40;93.70;18.30;99478.00;;;;339498;28;83731;-91
2021/09/13 00:50:03;;;;;;;;;;;18.40;93.80;18.20;99475.00;;;;338678;28;96456;-91
2021/09/13 00:50:15;;;;;;;;;;;18.40;93.90;18.20;99463.00;;;;339474;28;83529;-91
2021/09/13 00:50:27;;;;;;;;;;;18.40;93.90;18.30;99473.00;;;;338748;28;95239;-91
2021/09/13 00:50:38;;;;;;;;;;;18.40;93.80;18.50;99470.00;;;;342005;28;83409;-91
2021/09/13 00:50:50;;;;;;;;;;;18.40;93.70;18.40;99469.00;;;;338696;28;97174;-91
2021/09/13 00:51:02;;;;;;;;;;;18.40;93.80;18.30;99473.00;;;;340800;28;83368;-91
2021/09/13 00:51:14;;;;;;;;;;;18.40;93.80;18.30;99473.00;;;;341433;28;96967;-91
2021/09/13 00:51:26;;;;;;;;;;;18.40;93.80;18.40;99478.00;;;;340871;28;83305;-91
2021/09/13 00:51:38;;;;;;;;;;;18.40;93.70;18.30;99476.00;;;;338421;28;96281;-91
2021/09/13 00:51:50;;;;;;;;;;;18.40;93.80;18.30;99481.00;;;;340711;28;83659;-91
2021/09/13 00:52:01;;;;;;;;;;;18.40;93.90;18.30;99471.00;;;;339929;28;97641;-91
2021/09/13 00:52:14;;;;;;;;;;;18.30;94.00;18.30;99468.00;;;;338148;28;82579;-91
2021/09/13 00:52:26;;;;;;;;;;;18.30;94.00;18.30;99471.00;;;;338653;28;96805;-91
2021/09/13 00:52:37;;;;;;;;;;;18.30;94.00;18.30;99474.00;;;;337887;28;82516;-91
2021/09/13 00:52:53;;;;;;;;;;;18.30;93.80;18.40;99474.00;;;;337675;28;93790;-91
2021/09/13 00:53:05;;;;;;;;;;;18.30;93.80;18.30;99479.00;;;;338156;28;82512;-92
2021/09/13 00:53:36;;;;;;;;;;;18.30;93.60;18.20;99474.00;;;;340012;28;95456;-91
2021/09/13 00:53:48;;;;;;;;;;;18.30;93.90;18.30;99476.00;;;;340342;28;83505;-91
2021/09/13 00:54:00;;;;;;;;;;;18.30;93.90;18.30;99482.00;;;;338775;28;95293;-91
2021/09/13 00:54:12;;;;;;;;;;;18.30;93.90;18.40;99475.00;;;;338149;28;83435;-91
2021/09/13 00:54:23;;;;;;;;;;;18.30;93.90;18.40;99481.00;;;;336031;28;96507;-91
2021/09/13 00:54:35;;;;;;;;;;;18.30;93.80;18.30;99480.00;;;;338034;28;83504;-91
2021/09/13 00:54:47;;;;;;;;;;;18.30;93.80;18.20;99472.00;;;;337335;28;96848;-91
2021/09/13 00:54:59;;;;;;;;;;;18.30;93.80;18.20;99468.00;;;;340754;28;83449;-91
2021/09/13 00:55:11;;;;;;;;;;;18.30;93.80;18.20;99472.00;;;;337432;28;96936;-91
2021/09/13 00:55:23;;;;;;;;;;;18.30;94.00;18.20;99478.00;;;;338190;28;82487;-91
2021/09/13 00:55:35;;;;;;;;;;;18.30;94.00;18.20;99474.00;;;;340130;28;96450;-91
2021/09/13 00:55:46;;;;;;;;;;;18.30;94.00;18.20;99477.00;;;;343297;28;82556;-91
2021/09/13 00:55:58;;;;;;;;;;;18.30;94.00;18.20;99483.00;;;;337116;28;96095;-91
2021/09/13 00:56:10;;;;;;;;;;;18.30;94.10;18.20;99479.00;;;;339380;28;83501;-91
2021/09/13 00:56:22;;;;;;;;;;;18.30;94.00;18.20;99476.00;;;;339907;28;97432;-91
2021/09/13 00:56:34;;;;;;;;;;;18.30;94.00;18.20;99475.00;;;;339560;28;82527;-90
2021/09/13 00:56:46;;;;;;;;;;;18.30;94.10;18.20;99470.00;;;;339108;28;96093;-91
2021/09/13 00:56:58;;;;;;;;;;;18.20;94.10;18.20;99469.00;;;;339505;28;82451;-91
2021/09/13 00:57:10;;;;;;;;;;;18.20;94.10;18.20;99479.00;;;;338149;28;95631;-90
2021/09/13 00:57:21;;;;;;;;;;;18.20;94.00;18.10;99473.00;;;;339572;28;82534;-91
2021/09/13 00:57:33;;;;;;;;;;;18.30;94.00;18.10;99470.00;;;;340130;28;96367;-91
2021/09/13 00:57:45;;;;;;;;;;;18.20;94.10;18.10;99474.00;;;;342077;28;83374;-91
2021/09/13 00:57:57;;;;;;;;;;;18.20;94.10;18.10;99473.00;;;;340058;28;96365;-91
2021/09/13 00:58:09;;;;;;;;;;;18.20;94.10;18.10;99473.00;;;;340938;28;83399;-91
2021/09/13 00:58:22;;;;;;;;;;;18.20;94.20;18.10;99468.00;;;;341307;28;97156;-91
2021/09/13 00:58:35;;;;;;;;;;;18.20;94.20;18.10;99469.00;;;;340744;28;83498;-91
2021/09/13 00:58:47;;;;;;;;;;;18.20;94.20;18.10;99470.00;;;;341131;28;96427;-91
2021/09/13 00:58:59;;;;;;;;;;;18.20;94.20;18.10;99470.00;;;;341053;28;83392;-90
2021/09/13 00:59:11;;;;;;;;;;;18.20;94.10;18.10;99468.00;;;;340091;28;93007;-91
2021/09/13 00:59:23;;;;;;;;;;;18.20;94.20;18.10;99468.00;;;;340747;28;83487;-91
2021/09/13 00:59:35;;;;;;;;;;;18.20;94.10;18.30;99473.00;;;;338724;28;96554;-91